Time;durP1;ratioP1;P1;durP2;ratioP2;P2;SDS_P1;SDS_P2;PMS_P1;PMS_P2;Temp;Humidity;BMP_temperature;BMP_pressure;BME280_temperature;BME280_humidity;BME280_pressure;Samples;Min_cycle;Max_cycle;Signal;HPM_P1;HPM_P2
2022/07/11 00:02:19;;;;;;;9.07;5.60;;;16.10;99.90;;;;;;4986692;28;20407;-66
2022/07/11 00:04:46;;;;;;;10.20;5.30;;;16.10;99.90;;;;;;4987102;28;20458;-66
2022/07/11 00:07:13;;;;;;;10.98;5.47;;;16.10;99.90;;;;;;4989328;28;20050;-66
2022/07/11 00:09:39;;;;;;;6.13;5.53;;;16.10;99.90;;;;;;4990004;28;20054;-66
2022/07/11 00:12:05;;;;;;;8.55;5.10;;;16.00;99.90;;;;;;4989484;28;20042;-66
2022/07/11 00:14:31;;;;;;;6.65;4.82;;;16.00;99.90;;;;;;4989129;28;20619;-66
2022/07/11 00:16:57;;;;;;;7.07;5.13;;;16.00;99.90;;;;;;4988990;28;20150;-66
2022/07/11 00:19:23;;;;;;;20.27;5.55;;;16.00;99.90;;;;;;4989829;28;20131;-66
2022/07/11 00:21:50;;;;;;;9.00;5.38;;;16.00;99.90;;;;;;4976798;28;20035;-66
2022/07/11 00:24:19;;;;;;;16.77;6.50;;;16.00;99.90;;;;;;4989518;28;20054;-66
2022/07/11 00:26:46;;;;;;;10.23;4.47;;;16.00;99.90;;;;;;4988935;28;20042;-66
2022/07/11 00:29:12;;;;;;;7.97;5.50;;;15.90;99.90;;;;;;4988320;28;20504;-66
2022/07/11 00:31:37;;;;;;;7.90;5.05;;;15.90;99.90;;;;;;4989010;28;20044;-66
2022/07/11 00:34:03;;;;;;;12.55;4.65;;;15.90;99.90;;;;;;4989717;28;20817;-66
2022/07/11 00:36:29;;;;;;;11.18;5.15;;;15.90;99.90;;;;;;4989068;28;20108;-66
2022/07/11 00:38:55;;;;;;;8.80;5.40;;;15.90;99.90;;;;;;4983419;28;20113;-66
2022/07/11 00:41:21;;;;;;;8.18;4.53;;;15.90;99.90;;;;;;4987950;28;20062;-66
2022/07/11 00:43:57;;;;;;;15.23;5.55;;;16.00;99.90;;;;;;4986682;28;20084;-66
2022/07/11 00:46:25;;;;;;;9.15;4.70;;;15.90;99.90;;;;;;4982079;28;20072;-66
2022/07/11 00:48:52;;;;;;;7.80;5.18;;;15.90;99.90;;;;;;4977053;28;20046;-66
2022/07/11 00:51:21;;;;;;;5.15;4.05;;;15.90;99.90;;;;;;4988620;28;20068;-66
2022/07/11 00:53:53;;;;;;;6.88;4.28;;;15.90;99.90;;;;;;4986115;28;20050;-66
2022/07/11 00:56:27;;;;;;;13.60;5.15;;;15.90;99.90;;;;;;4987140;28;20058;-66
2022/07/11 00:58:56;;;;;;;4.53;3.65;;;15.90;99.90;;;;;;4987417;28;20682;-66
2022/07/11 01:01:22;;;;;;;7.40;3.75;;;15.90;99.90;;;;;;4970127;28;20046;-66
2022/07/11 01:03:49;;;;;;;6.22;3.90;;;15.90;99.90;;;;;;4976089;28;20050;-66
2022/07/11 01:06:15;;;;;;;3.97;3.08;;;15.80;99.90;;;;;;4988620;28;20046;-66
2022/07/11 01:08:42;;;;;;;10.02;3.97;;;15.80;99.90;;;;;;4974860;28;20053;-66
2022/07/11 01:11:12;;;;;;;6.05;3.40;;;15.80;99.90;;;;;;4988693;28;20411;-66
2022/07/11 01:13:41;;;;;;;7.57;3.20;;;15.80;99.90;;;;;;4984373;28;20038;-66
2022/07/11 01:16:17;;;;;;;9.65;3.28;;;15.80;99.90;;;;;;4987942;28;20459;-66
2022/07/11 01:18:54;;;;;;;11.00;3.67;;;15.80;99.90;;;;;;4982145;28;20042;-66
2022/07/11 01:21:19;;;;;;;7.15;3.42;;;15.80;99.90;;;;;;4987983;28;20396;-66
2022/07/11 01:23:49;;;;;;;8.23;3.53;;;15.80;99.90;;;;;;4987830;28;20496;-66
2022/07/11 01:26:17;;;;;;;5.88;3.13;;;15.80;99.90;;;;;;4976512;28;20046;-67
2022/07/11 01:28:44;;;;;;;18.17;3.33;;;15.80;99.90;;;;;;4980716;28;20732;-66
2022/07/11 01:31:11;;;;;;;7.45;4.05;;;15.70;99.90;;;;;;4987319;28;20157;-66
2022/07/11 01:33:37;;;;;;;4.50;2.80;;;15.80;99.90;;;;;;4986572;28;20054;-66
2022/07/11 01:36:03;;;;;;;9.25;3.13;;;15.70;99.90;;;;;;4981510;28;20065;-66
2022/07/11 01:38:29;;;;;;;8.30;3.65;;;15.80;99.90;;;;;;4980260;28;20213;-67
2022/07/11 01:40:55;;;;;;;5.65;3.58;;;15.70;99.90;;;;;;4982190;28;20053;-67
2022/07/11 01:43:21;;;;;;;10.60;3.92;;;15.70;99.90;;;;;;4985733;28;20050;-66
2022/07/11 01:45:53;;;;;;;7.47;3.05;;;15.80;99.90;;;;;;4992471;28;20038;-66
2022/07/11 01:48:19;;;;;;;7.03;3.53;;;15.70;99.90;;;;;;4985381;28;20039;-67
2022/07/11 01:50:46;;;;;;;8.43;2.85;;;15.80;99.90;;;;;;4990074;28;20042;-66
2022/07/11 01:53:12;;;;;;;8.15;3.28;;;15.70;99.90;;;;;;4991006;28;20054;-66
2022/07/11 01:55:38;;;;;;;4.85;3.00;;;15.70;99.90;;;;;;4972649;28;20381;-66
2022/07/11 01:58:04;;;;;;;7.57;3.45;;;15.80;99.90;;;;;;4983659;28;20113;-67
2022/07/11 02:00:29;;;;;;;9.98;3.40;;;15.70;99.90;;;;;;4987423;28;20046;-66
2022/07/11 02:02:55;;;;;;;9.18;3.35;;;15.70;99.90;;;;;;4983659;28;20047;-66
2022/07/11 02:05:21;;;;;;;10.00;3.35;;;15.70;99.90;;;;;;4975272;28;20046;-66
2022/07/11 02:10:32;;;;;;;4.47;3.63;;;15.70;99.90;;;;;;4989843;28;20054;-66
2022/07/11 02:12:58;;;;;;;5.18;3.63;;;15.70;99.90;;;;;;4990848;28;20042;-67
2022/07/11 02:15:25;;;;;;;6.53;3.92;;;15.70;99.90;;;;;;4989568;28;20451;-66
2022/07/11 02:17:51;;;;;;;3.90;3.13;;;15.70;99.90;;;;;;4985958;28;20070;-66
2022/07/11 02:20:21;;;;;;;9.35;3.17;;;15.80;99.90;;;;;;4989925;28;20050;-66
2022/07/11 02:22:48;;;;;;;6.60;3.78;;;15.70;99.90;;;;;;4990438;28;20125;-66
2022/07/11 02:25:14;;;;;;;5.47;3.75;;;15.70;99.90;;;;;;4990316;28;20105;-66
2022/07/11 02:27:40;;;;;;;6.53;2.90;;;15.70;99.90;;;;;;4989703;28;20495;-66
2022/07/11 02:30:07;;;;;;;7.47;3.28;;;15.70;99.90;;;;;;4990860;28;20046;-66
2022/07/11 02:32:32;;;;;;;11.85;3.58;;;15.70;99.90;;;;;;4991015;28;20492;-66
2022/07/11 02:34:58;;;;;;;9.80;3.75;;;15.70;99.90;;;;;;4990115;28;20069;-66
2022/07/11 02:37:25;;;;;;;6.13;3.85;;;15.70;99.90;;;;;;4990321;28;20157;-66
2022/07/11 02:39:52;;;;;;;6.40;3.67;;;15.70;99.90;;;;;;4990464;28;20042;-66
2022/07/11 02:42:18;;;;;;;5.88;2.95;;;15.60;99.90;;;;;;4990453;28;20129;-66
2022/07/11 02:44:44;;;;;;;10.18;3.65;;;15.70;99.90;;;;;;4989040;28;20050;-66
2022/07/11 02:47:10;;;;;;;4.53;3.53;;;15.70;99.90;;;;;;4981820;28;20131;-66
2022/07/11 02:49:36;;;;;;;6.00;3.72;;;15.70;99.90;;;;;;4990553;28;20037;-66
2022/07/11 02:52:02;;;;;;;3.97;3.42;;;15.60;99.90;;;;;;4990866;28;20038;-66
2022/07/11 02:54:28;;;;;;;5.95;3.95;;;15.60;99.90;;;;;;4988518;28;20056;-66
2022/07/11 02:56:54;;;;;;;6.80;4.53;;;15.70;99.90;;;;;;4990420;28;20050;-66
2022/07/11 02:59:20;;;;;;;8.13;4.95;;;15.60;99.90;;;;;;4972403;28;20058;-66
2022/07/11 03:01:46;;;;;;;5.70;3.88;;;15.70;99.90;;;;;;4979093;28;20538;-66
2022/07/11 03:04:12;;;;;;;6.65;4.70;;;15.70;99.90;;;;;;4972695;28;20085;-66
2022/07/11 03:06:39;;;;;;;5.72;4.28;;;15.70;99.90;;;;;;4990213;28;20450;-66
2022/07/11 03:09:06;;;;;;;7.70;5.23;;;15.70;99.90;;;;;;4984927;28;20042;-66
2022/07/11 03:11:32;;;;;;;5.57;4.82;;;15.70;99.90;;;;;;4983683;28;20050;-66
2022/07/11 03:13:58;;;;;;;5.28;3.92;;;15.60;99.90;;;;;;4989989;28;20056;-66
2022/07/11 03:16:24;;;;;;;7.60;5.50;;;15.60;99.90;;;;;;4990135;28;20499;-66
2022/07/11 03:18:50;;;;;;;7.28;5.13;;;15.60;99.90;;;;;;4989827;28;20042;-66
2022/07/11 03:21:15;;;;;;;5.10;4.60;;;15.60;99.90;;;;;;4980496;28;20389;-66
2022/07/11 03:23:41;;;;;;;5.55;4.28;;;15.60;99.90;;;;;;4988606;28;20054;-66
2022/07/11 03:26:07;;;;;;;5.68;4.78;;;15.60;99.90;;;;;;4989277;28;20053;-66
2022/07/11 03:28:32;;;;;;;4.90;4.40;;;15.60;99.90;;;;;;4989435;28;20440;-66
2022/07/11 03:30:58;;;;;;;6.90;4.93;;;15.60;99.90;;;;;;4989809;28;20105;-66
2022/07/11 03:33:24;;;;;;;7.35;4.25;;;15.60;99.90;;;;;;4989426;28;20557;-66
2022/07/11 03:35:50;;;;;;;7.20;5.13;;;15.60;99.90;;;;;;4989628;28;20073;-66
2022/07/11 03:38:19;;;;;;;11.85;6.88;;;15.60;99.90;;;;;;4988435;28;20050;-66
2022/07/11 03:40:47;;;;;;;6.03;5.43;;;15.60;99.90;;;;;;4990005;28;20038;-66
2022/07/11 03:43:15;;;;;;;7.30;5.35;;;15.70;99.90;;;;;;4987538;28;20517;-66
2022/07/11 03:45:41;;;;;;;8.13;5.63;;;15.60;99.90;;;;;;4972214;28;20034;-66
2022/07/11 03:48:07;;;;;;;7.22;4.88;;;15.60;99.90;;;;;;4976184;28;20497;-66
2022/07/11 03:50:34;;;;;;;5.38;4.82;;;15.60;99.90;;;;;;4988552;28;20046;-66
2022/07/11 03:53:00;;;;;;;7.57;5.40;;;15.60;99.90;;;;;;4980331;28;20043;-66
2022/07/11 03:55:26;;;;;;;8.23;5.13;;;15.60;99.90;;;;;;4989599;28;20451;-66
2022/07/11 03:57:51;;;;;;;5.47;4.97;;;15.60;99.90;;;;;;4988760;28;20046;-66
2022/07/11 04:00:19;;;;;;;11.77;5.63;;;15.60;99.90;;;;;;4989178;28;20034;-66
2022/07/11 04:02:45;;;;;;;6.05;5.13;;;15.60;99.90;;;;;;4986299;28;20074;-66
2022/07/11 04:05:11;;;;;;;5.63;5.13;;;15.60;99.90;;;;;;4987824;28;20073;-67
2022/07/11 04:07:37;;;;;;;8.05;5.25;;;15.60;99.90;;;;;;4988263;28;20034;-66
2022/07/11 04:10:03;;;;;;;6.47;5.13;;;15.60;99.90;;;;;;4988427;28;20404;-66
2022/07/11 04:12:28;;;;;;;6.80;4.30;;;15.60;99.90;;;;;;4970891;28;20050;-66
2022/07/11 04:14:54;;;;;;;6.95;4.88;;;15.60;99.90;;;;;;4972845;28;20057;-66
2022/07/11 04:17:20;;;;;;;6.35;5.05;;;15.60;99.90;;;;;;4989440;28;20053;-66
2022/07/11 04:19:45;;;;;;;5.47;4.43;;;15.60;99.90;;;;;;4976617;28;20484;-66
2022/07/11 04:22:11;;;;;;;6.43;4.53;;;15.60;99.90;;;;;;4985025;28;20067;-67
2022/07/11 04:24:37;;;;;;;6.97;5.28;;;15.60;99.90;;;;;;4985006;28;20040;-66
2022/07/11 04:27:04;;;;;;;5.38;4.88;;;15.60;99.90;;;;;;4987884;28;20037;-67
2022/07/11 04:29:30;;;;;;;5.63;4.90;;;15.70;99.90;;;;;;4968159;28;20065;-66
2022/07/11 04:31:56;;;;;;;9.55;5.10;;;15.70;99.90;;;;;;4987022;28;20046;-67
2022/07/11 04:34:22;;;;;;;7.70;5.70;;;15.70;99.90;;;;;;4988275;28;20046;-67
2022/07/11 04:36:47;;;;;;;7.47;5.22;;;15.70;99.90;;;;;;4988469;28;20046;-67
2022/07/11 04:39:13;;;;;;;8.88;5.20;;;15.70;99.90;;;;;;4984764;28;20459;-67
2022/07/11 04:41:39;;;;;;;5.70;5.10;;;15.70;99.90;;;;;;4988165;28;20045;-67
2022/07/11 04:44:05;;;;;;;5.70;4.93;;;15.70;99.90;;;;;;4988362;28;20034;-67
2022/07/11 04:46:31;;;;;;;6.72;5.47;;;15.70;99.90;;;;;;4978184;28;20062;-66
2022/07/11 04:48:58;;;;;;;9.05;5.10;;;15.80;99.90;;;;;;4984953;28;20068;-67
2022/07/11 04:51:24;;;;;;;7.85;4.80;;;15.80;99.90;;;;;;4979921;28;20381;-66
2022/07/11 04:53:50;;;;;;;10.00;5.30;;;15.80;99.90;;;;;;4985866;28;20054;-67
2022/07/11 04:56:16;;;;;;;6.47;4.70;;;15.80;99.90;;;;;;4988077;28;20487;-67
2022/07/11 04:58:43;;;;;;;9.45;5.25;;;15.80;99.90;;;;;;4987746;28;20045;-67
2022/07/11 05:01:09;;;;;;;8.20;5.07;;;15.80;99.90;;;;;;4971087;28;20096;-67
2022/07/11 05:03:36;;;;;;;7.22;5.03;;;15.80;99.90;;;;;;4985628;28;20042;-66
2022/07/11 05:06:02;;;;;;;5.15;4.30;;;15.80;99.90;;;;;;4985356;28;20056;-66
2022/07/11 05:08:29;;;;;;;5.28;3.78;;;15.80;99.90;;;;;;4977374;28;20054;-66
2022/07/11 05:10:55;;;;;;;6.05;4.28;;;15.80;99.90;;;;;;4984084;28;20050;-66
2022/07/11 05:13:21;;;;;;;7.75;4.32;;;15.80;99.90;;;;;;4986956;28;20466;-66
2022/07/11 05:15:46;;;;;;;3.90;3.45;;;15.80;99.90;;;;;;4981320;28;20042;-66
2022/07/11 05:18:12;;;;;;;5.72;3.60;;;15.80;99.90;;;;;;4987251;28;20046;-66
2022/07/11 05:20:37;;;;;;;4.85;3.78;;;15.80;99.90;;;;;;4991540;28;20108;-66
2022/07/11 05:23:03;;;;;;;3.50;3.20;;;15.90;99.90;;;;;;4980657;28;20039;-66
2022/07/11 05:25:29;;;;;;;3.25;2.95;;;15.90;99.90;;;;;;4974204;28;20500;-67
2022/07/11 05:27:54;;;;;;;4.95;3.03;;;15.90;99.90;;;;;;4990688;28;20133;-66
2022/07/11 05:30:21;;;;;;;3.25;2.90;;;16.00;99.90;;;;;;4985229;28;20037;-65
2022/07/11 05:32:47;;;;;;;3.72;3.38;;;16.00;99.90;;;;;;4987151;28;20073;-66
2022/07/11 05:35:13;;;;;;;4.65;3.50;;;16.00;99.90;;;;;;4984982;28;20054;-66
2022/07/11 05:37:38;;;;;;;6.50;2.67;;;16.00;99.90;;;;;;4981303;28;20051;-67
2022/07/11 05:40:05;;;;;;;3.78;3.15;;;16.10;99.90;;;;;;4972246;28;20125;-66
2022/07/11 05:42:31;;;;;;;9.15;3.13;;;16.10;99.90;;;;;;4969180;28;20129;-67
2022/07/11 05:44:57;;;;;;;3.58;2.85;;;16.10;99.90;;;;;;4966273;28;20090;-66
2022/07/11 05:47:23;;;;;;;5.10;2.38;;;16.10;99.90;;;;;;4975161;28;20038;-66
2022/07/11 05:49:48;;;;;;;8.25;2.90;;;16.10;99.90;;;;;;4973147;28;20049;-66
2022/07/11 05:52:15;;;;;;;3.33;2.60;;;16.10;99.90;;;;;;4965315;28;20119;-67
2022/07/11 05:54:40;;;;;;;4.13;2.45;;;16.20;99.90;;;;;;4981604;28;20057;-67
2022/07/11 05:57:06;;;;;;;2.65;2.00;;;16.20;99.90;;;;;;4963990;28;20034;-67
2022/07/11 05:59:32;;;;;;;4.38;2.75;;;16.20;99.90;;;;;;4979807;28;20097;-67
2022/07/11 06:01:57;;;;;;;2.03;1.30;;;16.20;99.90;;;;;;4980543;28;20057;-67
2022/07/11 06:04:23;;;;;;;2.30;1.80;;;16.20;99.90;;;;;;4970965;28;20054;-67
2022/07/11 06:06:49;;;;;;;3.42;1.45;;;16.10;99.90;;;;;;4972286;28;20416;-66
2022/07/11 06:09:15;;;;;;;1.70;1.02;;;16.20;99.90;;;;;;4967328;28;20051;-67
2022/07/11 06:11:40;;;;;;;6.20;1.20;;;16.10;99.90;;;;;;4970645;28;20462;-67
2022/07/11 06:14:07;;;;;;;3.53;2.00;;;16.10;99.90;;;;;;4969961;28;20042;-67
2022/07/11 06:16:32;;;;;;;5.88;1.60;;;16.10;99.90;;;;;;4952699;28;20114;-67
2022/07/11 06:18:58;;;;;;;6.47;2.10;;;16.20;99.90;;;;;;4967137;28;20051;-67
2022/07/11 06:21:27;;;;;;;3.85;2.08;;;16.20;99.90;;;;;;4971298;28;20053;-67
2022/07/11 06:23:54;;;;;;;2.97;1.60;;;16.20;99.90;;;;;;4969665;28;20047;-66
2022/07/11 06:26:21;;;;;;;4.68;2.10;;;16.30;99.90;;;;;;4970372;28;20125;-67
2022/07/11 06:28:46;;;;;;;4.35;1.95;;;16.30;99.90;;;;;;4970248;28;20035;-67
2022/07/11 06:31:13;;;;;;;3.50;1.77;;;16.40;99.90;;;;;;4968072;28;20050;-67
2022/07/11 06:33:39;;;;;;;5.43;1.85;;;16.40;99.90;;;;;;4960144;28;20138;-67
2022/07/11 06:36:05;;;;;;;2.88;1.55;;;16.50;99.90;;;;;;4981297;28;20400;-66
2022/07/11 06:38:32;;;;;;;1.77;1.27;;;16.50;99.90;;;;;;4970251;28;20050;-66
2022/07/11 06:40:58;;;;;;;1.30;1.20;;;16.60;99.90;;;;;;4970721;28;20050;-66
2022/07/11 06:43:24;;;;;;;4.38;1.20;;;16.60;99.90;;;;;;4966151;28;20109;-66
2022/07/11 06:45:51;;;;;;;3.03;1.00;;;16.70;99.90;;;;;;4969688;28;20783;-66
2022/07/11 06:48:17;;;;;;;1.55;0.98;;;16.90;99.90;;;;;;4977157;28;20081;-66
2022/07/11 06:50:43;;;;;;;1.05;0.90;;;17.00;99.90;;;;;;4969482;28;20499;-67
2022/07/11 06:53:09;;;;;;;2.03;1.15;;;17.20;99.90;;;;;;4971237;28;20097;-67
2022/07/11 06:55:35;;;;;;;0.80;0.80;;;17.30;99.90;;;;;;4966640;28;20042;-67
2022/07/11 06:58:01;;;;;;;1.73;1.10;;;17.40;99.90;;;;;;4970516;28;20047;-66
2022/07/11 07:00:30;;;;;;;2.25;0.98;;;17.50;99.90;;;;;;4969868;28;20057;-66
2022/07/11 07:02:56;;;;;;;3.20;1.45;;;17.50;99.90;;;;;;4960431;28;20511;-73
2022/07/11 07:05:23;;;;;;;6.80;1.42;;;17.60;99.90;;;;;;4948737;28;20051;-73
2022/07/11 07:07:50;;;;;;;1.40;1.30;;;17.60;99.90;;;;;;4951727;28;20057;-73
2022/07/11 07:10:16;;;;;;;6.32;1.40;;;17.60;99.90;;;;;;4941606;29;20043;-73
2022/07/11 07:12:41;;;;;;;1.65;0.90;;;17.50;99.90;;;;;;4950794;28;20073;-73
2022/07/11 07:15:09;;;;;;;1.92;1.48;;;17.50;99.90;;;;;;4960081;28;20045;-73
2022/07/11 07:17:35;;;;;;;5.95;1.67;;;17.60;99.90;;;;;;4948280;28;20062;-74
2022/07/11 07:20:00;;;;;;;2.10;0.82;;;17.60;99.90;;;;;;4953056;28;20459;-73
2022/07/11 07:22:26;;;;;;;1.33;1.05;;;17.60;99.90;;;;;;4970642;28;20062;-73
2022/07/11 07:24:52;;;;;;;2.90;1.40;;;17.60;99.90;;;;;;4969230;28;20058;-73
2022/07/11 07:27:17;;;;;;;0.77;0.77;;;17.60;99.90;;;;;;4946531;28;20097;-73
2022/07/11 07:29:43;;;;;;;1.63;1.00;;;17.80;99.90;;;;;;4970133;28;20031;-73
2022/07/11 07:32:09;;;;;;;1.50;1.17;;;18.20;99.90;;;;;;4952972;28;20856;-74
2022/07/11 07:34:35;;;;;;;2.20;1.33;;;18.60;99.90;;;;;;4950983;28;20039;-74
2022/07/11 07:37:01;;;;;;;3.40;1.02;;;19.10;99.90;;;;;;4974574;28;20423;-75
2022/07/11 07:39:27;;;;;;;0.93;0.70;;;19.30;99.90;;;;;;4988164;28;20050;-75
2022/07/11 07:41:54;;;;;;;2.65;0.73;;;19.50;99.90;;;;;;4969315;28;20054;-75
2022/07/11 07:44:20;;;;;;;1.80;1.10;;;19.50;99.90;;;;;;4971341;28;20046;-75
2022/07/11 07:46:46;;;;;;;1.90;0.73;;;19.40;99.90;;;;;;4988500;28;20128;-75
2022/07/11 07:49:11;;;;;;;0.80;0.80;;;19.30;99.90;;;;;;4971609;28;20089;-74
2022/07/11 07:51:38;;;;;;;0.88;0.88;;;19.20;99.90;;;;;;4988849;28;20037;-73
2022/07/11 07:54:03;;;;;;;0.77;0.70;;;19.10;99.90;;;;;;4986403;28;20053;-74
2022/07/11 07:56:29;;;;;;;1.35;1.20;;;19.10;99.90;;;;;;4986316;28;20046;-73
2022/07/11 07:58:56;;;;;;;2.10;1.02;;;19.00;99.90;;;;;;4985858;28;20082;-72
2022/07/11 08:01:38;;;;;;;1.15;0.70;;;19.00;99.90;;;;;;4983701;28;20050;-73
2022/07/11 08:04:05;;;;;;;0.73;0.73;;;18.90;99.90;;;;;;4976441;28;20514;-73
2022/07/11 08:06:31;;;;;;;12.45;1.92;;;18.90;99.90;;;;;;4978363;28;20117;-71
2022/07/11 08:08:57;;;;;;;4.25;1.25;;;18.90;99.90;;;;;;4968185;28;20038;-74
2022/07/11 08:11:23;;;;;;;2.22;1.20;;;18.90;99.90;;;;;;4967234;28;20348;-73
2022/07/11 08:13:49;;;;;;;1.10;0.90;;;18.80;99.90;;;;;;4962670;28;20047;-73
2022/07/11 08:16:15;;;;;;;1.13;0.60;;;18.80;99.90;;;;;;4970656;28;20061;-73
2022/07/11 08:18:40;;;;;;;1.67;0.90;;;18.90;99.90;;;;;;4987831;28;20042;-74
2022/07/11 08:21:09;;;;;;;1.95;0.80;;;18.90;99.90;;;;;;4978808;28;20590;-73
2022/07/11 08:23:36;;;;;;;2.10;1.00;;;18.80;99.90;;;;;;4968548;28;20458;-73
2022/07/11 08:26:02;;;;;;;2.13;0.90;;;18.80;99.90;;;;;;4971539;28;20499;-76
2022/07/11 08:28:27;;;;;;;1.30;0.93;;;18.80;99.90;;;;;;4987022;28;20051;-74
2022/07/11 08:30:53;;;;;;;0.60;0.60;;;18.80;99.90;;;;;;4970374;28;20545;-74
2022/07/11 08:33:20;;;;;;;2.97;0.98;;;18.80;99.90;;;;;;4969018;28;20457;-74
2022/07/11 08:35:48;;;;;;;0.98;0.55;;;18.90;99.90;;;;;;4960345;28;20046;-74
2022/07/11 08:38:13;;;;;;;1.17;0.70;;;18.90;99.90;;;;;;4950117;28;20089;-74
2022/07/11 08:40:42;;;;;;;1.70;1.00;;;18.90;99.90;;;;;;4967904;28;20930;-74
2022/07/11 08:43:16;;;;;;;3.42;0.75;;;19.00;99.90;;;;;;4964616;28;20452;-74
2022/07/11 08:45:42;;;;;;;0.93;0.50;;;19.00;99.90;;;;;;4967957;28;20236;-74
2022/07/11 08:48:11;;;;;;;0.60;0.60;;;19.00;99.90;;;;;;4966139;28;20524;-74
2022/07/11 08:50:37;;;;;;;1.58;0.70;;;18.80;99.90;;;;;;4966614;28;20086;-74
2022/07/11 08:53:04;;;;;;;0.70;0.70;;;18.70;99.90;;;;;;4966997;28;20051;-74
2022/07/11 08:55:30;;;;;;;1.67;1.00;;;18.70;99.90;;;;;;4967216;28;20043;-74
2022/07/11 08:57:56;;;;;;;1.23;1.02;;;18.60;99.90;;;;;;4968089;28;20047;-74
2022/07/11 09:00:22;;;;;;;1.08;0.77;;;18.60;99.90;;;;;;4968521;28;20050;-75
2022/07/11 09:02:49;;;;;;;1.33;0.82;;;18.60;99.90;;;;;;4967239;28;20047;-74
2022/07/11 09:05:15;;;;;;;1.25;1.13;;;18.60;99.90;;;;;;4966862;28;20081;-74
2022/07/11 09:07:46;;;;;;;1.10;1.08;;;18.60;99.90;;;;;;4968536;28;20050;-74
2022/07/11 09:10:13;;;;;;;9.35;1.48;;;18.60;99.90;;;;;;4968990;28;20085;-74
2022/07/11 09:12:57;;;;;;;3.97;1.23;;;18.60;99.90;;;;;;4957317;28;20042;-75
2022/07/11 09:15:37;;;;;;;1.38;0.98;;;18.70;99.90;;;;;;4967539;28;20050;-74
2022/07/11 09:18:04;;;;;;;1.50;1.40;;;18.70;99.90;;;;;;4982814;28;20085;-70
2022/07/11 09:26:22;;;;;;;1.17;1.08;;;18.90;99.90;;;;;;4965892;28;20070;-72
2022/07/11 09:29:06;;;;;;;1.10;1.00;;;19.10;99.90;;;;;;4967102;28;20050;-72
2022/07/11 09:31:33;;;;;;;9.13;1.67;;;19.10;99.90;;;;;;4958527;28;20047;-72
2022/07/11 09:34:01;;;;;;;1.85;0.80;;;19.10;99.90;;;;;;4967752;28;20059;-72
2022/07/11 09:36:37;;;;;;;0.88;0.73;;;19.20;99.90;;;;;;4972455;28;20077;-72
2022/07/11 09:39:05;;;;;;;0.85;0.85;;;19.20;99.90;;;;;;4968167;28;20051;-72
2022/07/11 09:41:33;;;;;;;1.73;0.82;;;19.20;99.90;;;;;;4967457;28;20557;-71
2022/07/11 09:44:06;;;;;;;1.92;0.93;;;19.20;99.90;;;;;;4964565;28;20054;-71
2022/07/11 09:46:32;;;;;;;2.60;1.33;;;19.10;99.90;;;;;;4978802;28;20420;-71
2022/07/11 09:49:00;;;;;;;1.90;1.13;;;19.10;99.90;;;;;;4963277;28;20043;-71
2022/07/11 09:51:26;;;;;;;3.50;1.40;;;19.10;99.90;;;;;;4975021;28;20050;-71
2022/07/11 09:53:55;;;;;;;3.45;1.20;;;19.00;99.90;;;;;;4968728;28;20081;-71
2022/07/11 09:56:24;;;;;;;2.35;1.45;;;19.00;99.90;;;;;;4967195;28;20050;-70
2022/07/11 09:58:59;;;;;;;2.13;1.67;;;18.90;99.90;;;;;;4966365;28;20046;-71
2022/07/11 10:01:26;;;;;;;2.35;1.23;;;18.80;99.90;;;;;;4960449;28;20055;-71
2022/07/11 10:03:51;;;;;;;33.40;2.42;;;18.90;99.90;;;;;;4962197;28;20043;-71
2022/07/11 10:06:17;;;;;;;1.70;0.98;;;18.90;99.90;;;;;;4960592;28;20050;-71
2022/07/11 10:08:43;;;;;;;9.10;1.17;;;18.90;99.90;;;;;;4970633;28;20379;-71
2022/07/11 10:11:11;;;;;;;1.40;1.30;;;19.00;99.90;;;;;;4971083;28;20055;-71
2022/07/11 10:13:37;;;;;;;2.58;1.23;;;19.10;99.90;;;;;;4976455;28;20058;-71
2022/07/11 10:16:17;;;;;;;3.10;1.10;;;19.10;99.90;;;;;;4968297;28;20632;-70
2022/07/11 10:18:53;;;;;;;1.58;0.98;;;19.20;99.90;;;;;;4978167;28;20046;-71
2022/07/11 10:21:30;;;;;;;0.70;0.63;;;19.30;99.90;;;;;;4958350;28;20053;-70
2022/07/11 10:23:56;;;;;;;;;;;19.40;99.90;;;;;;4971347;28;20050;-71
2022/07/11 10:26:42;;;;;;;1.77;1.58;;;19.30;99.90;;;;;;4963050;28;19976;-71
2022/07/11 10:29:17;;;;;;;0.82;0.82;;;19.30;99.90;;;;;;4968432;28;20035;-71
2022/07/11 10:31:46;;;;;;;1.77;0.85;;;19.30;99.90;;;;;;4969865;28;20078;-71
2022/07/11 10:34:21;;;;;;;1.58;1.00;;;19.30;99.90;;;;;;4971306;28;20602;-70
2022/07/11 10:36:46;;;;;;;2.38;1.25;;;19.20;99.90;;;;;;4957069;28;20058;-71
2022/07/11 10:39:29;;;;;;;2.65;1.63;;;19.20;99.90;;;;;;4976366;28;20424;-71
2022/07/11 10:42:00;;;;;;;6.50;1.27;;;19.20;99.90;;;;;;4954780;28;20134;-71
2022/07/11 10:44:27;;;;;;;2.22;1.05;;;19.20;99.90;;;;;;4964877;28;20133;-70
2022/07/11 10:46:54;;;;;;;0.80;0.80;;;19.20;99.90;;;;;;4971677;28;20053;-72
2022/07/11 10:49:48;;;;;;;1.05;0.77;;;19.30;99.90;;;;;;4971039;28;20086;-71
2022/07/11 10:52:22;;;;;;;1.23;0.80;;;19.40;99.90;;;;;;4969923;28;20603;-71
2022/07/11 10:55:03;;;;;;;9.00;1.83;;;19.50;99.90;;;;;;4968140;28;20034;-72
2022/07/11 10:57:57;;;;;;;4.07;0.90;;;19.50;99.90;;;;;;4950660;28;20567;-71
2022/07/11 11:00:23;;;;;;;4.82;1.45;;;19.50;99.90;;;;;;4957518;28;20051;-72
2022/07/11 11:03:09;;;;;;;3.63;1.13;;;19.50;99.90;;;;;;4971250;28;20085;-72
2022/07/11 11:05:52;;;;;;;2.25;1.25;;;19.50;99.90;;;;;;4960743;28;20776;-72
2022/07/11 11:08:43;;;;;;;1.70;1.10;;;19.50;99.90;;;;;;4967404;28;20050;-72
2022/07/11 11:11:23;;;;;;;0.98;0.95;;;19.50;99.90;;;;;;4964773;28;20055;-72
2022/07/11 11:14:13;;;;;;;2.25;1.02;;;19.50;99.90;;;;;;4969171;28;20122;-72
2022/07/11 11:16:39;;;;;;;0.90;0.90;;;19.50;99.90;;;;;;4970001;28;20057;-72
2022/07/11 11:19:04;;;;;;;11.10;1.92;;;19.50;99.90;;;;;;4970508;28;20047;-71
2022/07/11 11:21:30;;;;;;;6.15;1.77;;;19.60;99.90;;;;;;4970156;28;20403;-71
2022/07/11 11:24:00;;;;;;;1.27;1.10;;;19.60;99.90;;;;;;4967455;28;20053;-71
2022/07/11 11:26:48;;;;;;;1.20;1.10;;;19.50;99.90;;;;;;4968653;28;20047;-71
2022/07/11 11:29:24;;;;;;;2.92;1.30;;;19.50;99.90;;;;;;4969305;28;20054;-72
2022/07/11 11:31:56;;;;;;;1.08;1.08;;;19.60;99.90;;;;;;4970163;28;20069;-72
2022/07/11 11:34:22;;;;;;;1.33;1.23;;;19.60;99.90;;;;;;4969762;28;20051;-73
2022/07/11 11:36:59;;;;;;;2.90;1.17;;;19.60;99.90;;;;;;4957253;28;20050;-73
2022/07/11 11:39:38;;;;;;;10.75;1.63;;;19.60;99.90;;;;;;4972635;28;20454;-73
2022/07/11 11:42:14;;;;;;;6.25;1.60;;;19.60;99.90;;;;;;4969438;28;20137;-72
2022/07/11 11:44:50;;;;;;;1.50;1.40;;;19.60;99.90;;;;;;4988952;28;20054;-72
2022/07/11 11:47:16;;;;;;;1.88;1.45;;;19.50;99.90;;;;;;4991364;28;20054;-71
2022/07/11 11:49:47;;;;;;;2.08;1.48;;;19.70;99.90;;;;;;4968716;28;20416;-73
2022/07/11 11:52:13;;;;;;;1.30;1.27;;;19.70;99.90;;;;;;4976227;28;20519;-72
2022/07/11 11:54:39;;;;;;;1.92;1.30;;;19.70;99.90;;;;;;4965751;28;20042;-72
2022/07/11 11:57:13;;;;;;;2.20;1.30;;;19.80;99.90;;;;;;4987057;28;20089;-72
2022/07/11 11:59:40;;;;;;;7.13;1.50;;;19.90;99.90;;;;;;4989001;28;20061;-72
2022/07/11 12:02:06;;;;;;;1.20;1.10;;;20.10;99.90;;;;;;4971726;28;20038;-72
2022/07/11 12:04:33;;;;;;;1.10;1.10;;;20.20;99.90;;;;;;4978463;28;20048;-72
2022/07/11 12:07:01;;;;;;;2.72;1.48;;;20.30;99.90;;;;;;4984362;28;20127;-72
2022/07/11 12:09:46;;;;;;;2.20;1.42;;;20.30;99.90;;;;;;4988285;28;20069;-73
2022/07/11 12:14:57;;;;;;;1.02;1.02;;;20.40;99.90;;;;;;4981459;28;20042;-73
2022/07/11 12:17:28;;;;;;;1.63;1.52;;;20.30;99.90;;;;;;4969286;28;20049;-73
2022/07/11 12:19:54;;;;;;;1.73;1.20;;;20.30;99.90;;;;;;4978416;28;20046;-74
2022/07/11 12:22:20;;;;;;;1.83;1.40;;;20.30;99.90;;;;;;4983472;28;20050;-74
2022/07/11 12:24:48;;;;;;;1.23;1.23;;;20.30;99.90;;;;;;4970009;28;20046;-73
2022/07/11 12:27:24;;;;;;;16.83;2.15;;;20.30;99.90;;;;;;4956207;28;20089;-73
2022/07/11 12:29:51;;;;;;;5.35;1.75;;;20.30;99.90;;;;;;4986051;28;20092;-73
2022/07/11 12:32:19;;;;;;;31.80;2.83;;;20.30;99.90;;;;;;4988918;28;20879;-73
2022/07/11 12:34:47;;;;;;;10.15;2.10;;;20.30;99.90;;;;;;4971093;28;20504;-74
2022/07/11 12:37:20;;;;;;;27.48;3.80;;;20.30;99.90;;;;;;4980245;28;20066;-74
2022/07/11 12:39:56;;;;;;;2.35;1.42;;;20.20;99.90;;;;;;4965035;28;20489;-73
2022/07/11 12:42:28;;;;;;;3.30;1.67;;;20.20;99.90;;;;;;4982420;28;20054;-73
2022/07/11 12:45:08;;;;;;;1.63;1.52;;;20.20;99.90;;;;;;4984547;28;20051;-73
2022/07/11 12:47:38;;;;;;;1.88;1.60;;;20.30;99.90;;;;;;4979540;28;20054;-73
2022/07/11 12:50:27;;;;;;;2.55;1.65;;;20.30;99.90;;;;;;4970024;28;20046;-73
2022/07/11 12:52:55;;;;;;;2.45;1.50;;;20.30;99.90;;;;;;4965630;28;20117;-74
2022/07/11 12:55:30;;;;;;;1.50;1.27;;;20.30;99.90;;;;;;4987966;28;20470;-72
2022/07/11 12:58:10;;;;;;;3.97;2.85;;;20.30;99.90;;;;;;4986632;28;20586;-73
2022/07/11 13:00:38;;;;;;;10.27;3.80;;;20.30;99.90;;;;;;4970568;28;20418;-73
2022/07/11 13:03:07;;;;;;;2.78;2.58;;;20.30;99.90;;;;;;4988531;28;20054;-73